Terminal Aerodrome Forecast
Issued by NWS Rapid City, SD

Home | Current Version | Previous Version | Text Only | Print | Product List | Glossary Off
Versions: 1 2 3 4 5 6 7 8 9 10 11 12 13 14 15 16 17 18 19 20 21 22

461
FTUS43 KUNR 261423 AAA
TAFRAP
TAF AMD
KRAP 261423Z 2614/2712 13007KT P6SM SCT025 OVC070
      TEMPO 2614/2615 BKN020
     FM261600 16010KT P6SM SCT080
     FM270100 18004KT P6SM SCT060 BKN150
     FM270600 24004KT P6SM SCT250=

USA.gov is the U.S. government's official web portal to all federal, state and local government web resources and services.